createdAt,value
2022-10-04T00:01:19.293Z,12.10
2022-10-04T00:07:26.332Z,12.20
2022-10-04T00:13:26.169Z,12.18
2022-10-04T00:18:48.812Z,12.10
2022-10-04T00:24:22.304Z,12.10
2022-10-04T00:29:50.039Z,12.10
2022-10-04T00:35:27.842Z,12.10
2022-10-04T00:41:08.950Z,12.10
2022-10-04T00:46:42.506Z,12.10
2022-10-04T00:52:18.746Z,12.10
2022-10-04T00:57:48.640Z,12.10
2022-10-04T01:03:33.332Z,12.10
2022-10-04T01:09:34.935Z,12.10
2022-10-04T01:16:33.678Z,12.02
2022-10-04T01:22:43.108Z,12.00
2022-10-04T01:28:36.341Z,12.06
2022-10-04T01:34:37.919Z,12.10
2022-10-04T01:40:09.042Z,12.00
2022-10-04T01:46:25.607Z,12.00
2022-10-04T01:52:17.835Z,12.00
2022-10-04T01:58:09.289Z,12.00
2022-10-04T02:04:22.255Z,12.00
2022-10-04T02:10:19.968Z,12.00
2022-10-04T02:15:49.195Z,12.00
2022-10-04T02:21:16.768Z,12.00
2022-10-04T02:27:04.694Z,12.00
2022-10-04T02:33:00.851Z,12.00
2022-10-04T02:39:08.844Z,12.00
2022-10-04T02:45:00.275Z,12.00
2022-10-04T02:50:44.411Z,12.00
2022-10-04T02:56:17.547Z,11.90
2022-10-04T03:01:52.669Z,11.90
2022-10-04T03:07:18.549Z,11.90
2022-10-04T03:12:42.544Z,11.84
2022-10-04T03:18:18.690Z,11.80
2022-10-04T03:23:52.384Z,11.90
2022-10-04T03:29:19.332Z,11.90
2022-10-04T03:35:07.735Z,11.90
2022-10-04T03:41:07.565Z,11.96
2022-10-04T03:46:57.945Z,11.90
2022-10-04T03:52:38.040Z,11.90
2022-10-04T03:58:13.321Z,11.90
2022-10-04T04:04:32.445Z,11.90
2022-10-04T04:10:16.733Z,11.88
2022-10-04T04:15:57.618Z,11.86
2022-10-04T04:21:34.338Z,11.70
2022-10-04T04:27:29.213Z,11.70
2022-10-04T04:33:10.772Z,11.70
2022-10-04T04:38:43.540Z,11.70
2022-10-04T04:44:29.771Z,11.70
2022-10-04T04:49:52.655Z,11.70
2022-10-04T04:55:50.025Z,11.70
2022-10-04T05:01:47.700Z,11.60
2022-10-04T05:07:20.087Z,11.50
2022-10-04T05:12:48.168Z,11.40
2022-10-04T05:18:51.915Z,11.40
2022-10-04T05:25:03.475Z,11.38
2022-10-04T05:31:40.015Z,11.40
2022-10-04T05:37:30.312Z,11.40
2022-10-04T05:42:58.536Z,11.40
2022-10-04T05:49:04.347Z,11.48
2022-10-04T05:54:52.996Z,11.50
2022-10-04T06:00:46.977Z,11.60
2022-10-04T06:07:07.280Z,11.60
2022-10-04T06:13:41.858Z,11.70
2022-10-04T06:20:11.892Z,11.80
2022-10-04T06:26:01.746Z,11.80
2022-10-04T06:32:28.557Z,11.90
2022-10-04T06:39:13.250Z,12.00
2022-10-04T06:46:05.551Z,12.10
2022-10-04T06:52:15.458Z,12.16
2022-10-04T06:58:02.551Z,12.30
2022-10-04T07:03:41.786Z,12.30
2022-10-04T07:09:19.476Z,12.30
2022-10-04T07:14:51.319Z,12.40
2022-10-04T07:20:43.023Z,12.50
2022-10-04T07:26:17.874Z,12.60
2022-10-04T07:32:07.358Z,12.70
2022-10-04T07:37:58.289Z,12.70
2022-10-04T07:44:20.877Z,12.90
2022-10-04T07:49:53.778Z,13.10
2022-10-04T07:56:26.211Z,13.10
2022-10-04T08:02:27.696Z,13.20
2022-10-04T08:09:01.338Z,13.20
2022-10-04T08:15:39.818Z,13.10
2022-10-04T08:21:23.608Z,13.30
2022-10-04T08:27:19.309Z,13.40
2022-10-04T08:33:22.541Z,13.40
2022-10-04T08:39:37.209Z,13.52
2022-10-04T08:45:38.233Z,13.70
2022-10-04T08:51:45.424Z,13.90
2022-10-04T08:58:02.178Z,13.90
2022-10-04T09:05:20.535Z,14.00
2022-10-04T09:11:37.748Z,14.12
2022-10-04T09:17:47.697Z,14.20
2022-10-04T09:24:16.145Z,14.20
2022-10-04T09:30:43.371Z,14.20
2022-10-04T09:37:05.973Z,14.20
2022-10-04T09:42:42.527Z,14.40
2022-10-04T09:48:29.951Z,14.50
2022-10-04T09:54:41.069Z,14.60
2022-10-04T10:00:23.579Z,14.60
2022-10-04T10:06:12.340Z,14.60
2022-10-04T10:12:16.364Z,14.60
2022-10-04T10:18:01.587Z,14.70
2022-10-04T10:24:11.721Z,14.80
2022-10-04T10:30:03.348Z,14.90
2022-10-04T10:36:30.370Z,15.10
2022-10-04T10:42:17.583Z,15.30
2022-10-04T10:48:01.725Z,15.40
2022-10-04T10:54:42.030Z,15.38
2022-10-04T11:00:23.424Z,15.30
2022-10-04T11:06:02.974Z,15.40
2022-10-04T11:12:19.280Z,15.60
2022-10-04T11:18:25.482Z,15.90
2022-10-04T11:24:58.342Z,15.88
2022-10-04T11:30:46.568Z,15.86
2022-10-04T11:36:52.454Z,15.80
2022-10-04T11:43:05.217Z,15.90
2022-10-04T11:49:50.419Z,15.90
2022-10-04T11:56:04.095Z,16.00
2022-10-04T12:02:20.900Z,16.00
2022-10-04T12:08:11.601Z,16.20
2022-10-04T12:14:13.299Z,16.30
2022-10-04T12:21:03.867Z,16.40
2022-10-04T12:28:12.249Z,16.50
2022-10-04T12:34:00.675Z,16.60
2022-10-04T12:40:26.176Z,16.50
2022-10-04T12:46:24.102Z,16.40
2022-10-04T12:52:24.354Z,16.50
2022-10-04T12:58:26.515Z,16.60
2022-10-04T13:05:15.544Z,16.60
2022-10-04T13:11:53.092Z,16.40
2022-10-04T13:18:39.734Z,16.10
2022-10-04T13:24:22.786Z,16.04
2022-10-04T13:30:02.444Z,15.90
2022-10-04T13:36:20.494Z,16.00
2022-10-04T13:42:46.483Z,16.00
2022-10-04T13:49:07.084Z,16.00
2022-10-04T13:55:19.698Z,16.20
2022-10-04T14:02:00.355Z,16.20
2022-10-04T14:08:32.117Z,16.30
2022-10-04T14:15:09.666Z,16.30
2022-10-04T14:21:06.828Z,16.30
2022-10-04T14:27:44.327Z,16.28
2022-10-04T14:33:54.917Z,16.20
2022-10-04T14:39:58.559Z,16.20
2022-10-04T14:46:16.998Z,16.20
2022-10-04T14:52:47.296Z,16.10
2022-10-04T14:58:41.331Z,16.02
2022-10-04T15:05:26.347Z,15.90
2022-10-04T15:11:08.552Z,15.82
2022-10-04T15:16:58.291Z,15.70
2022-10-04T15:22:31.600Z,15.60
2022-10-04T15:27:58.458Z,15.60
2022-10-04T15:34:18.930Z,15.50
2022-10-04T15:40:04.042Z,15.48
2022-10-04T15:45:52.346Z,15.40
2022-10-04T15:51:45.101Z,15.30
2022-10-04T15:57:41.148Z,15.20
2022-10-04T16:03:10.903Z,15.10
2022-10-04T16:09:16.853Z,15.00
2022-10-04T16:15:19.953Z,14.80
2022-10-04T16:21:16.026Z,14.70
2022-10-04T16:26:41.755Z,14.50
2022-10-04T16:32:46.742Z,14.30
2022-10-04T16:38:54.942Z,14.10
2022-10-04T16:44:55.191Z,13.90
2022-10-04T16:50:56.960Z,13.74
2022-10-04T16:56:33.061Z,13.60
2022-10-04T17:02:32.618Z,13.50
2022-10-04T17:08:41.269Z,13.34
2022-10-04T17:14:33.029Z,13.20
2022-10-04T17:20:42.365Z,13.10
2022-10-04T17:26:26.536Z,13.00
2022-10-04T17:31:58.194Z,12.90
2022-10-04T17:37:44.842Z,12.80
2022-10-04T17:43:50.453Z,12.70
2022-10-04T17:50:34.292Z,12.70
2022-10-04T17:56:14.302Z,12.60
2022-10-04T18:02:00.949Z,12.54
2022-10-04T18:07:48.256Z,12.50
2022-10-04T18:13:43.640Z,12.40
2022-10-04T18:19:38.705Z,12.30
2022-10-04T18:25:33.001Z,12.20
2022-10-04T18:31:30.815Z,12.10
2022-10-04T18:37:38.318Z,12.00
2022-10-04T18:44:15.712Z,11.98
2022-10-04T18:50:01.022Z,11.80
2022-10-04T18:56:06.704Z,11.80
2022-10-04T19:02:07.438Z,11.70
2022-10-04T19:07:49.572Z,11.60
2022-10-04T19:13:58.867Z,11.58
2022-10-04T19:20:01.493Z,11.50
2022-10-04T19:25:35.949Z,11.50
2022-10-04T19:31:30.592Z,11.42
2022-10-04T19:37:49.303Z,11.40
2022-10-04T19:43:43.327Z,11.40
2022-10-04T19:49:33.985Z,11.38
2022-10-04T19:55:47.968Z,11.30
2022-10-04T20:01:27.214Z,11.28
2022-10-04T20:06:59.924Z,11.20
2022-10-04T20:12:40.025Z,11.10
2022-10-04T20:18:34.401Z,11.10
2022-10-04T20:25:02.323Z,11.00
2022-10-04T20:30:51.645Z,11.00
2022-10-04T20:36:35.558Z,10.90
2022-10-04T20:42:33.921Z,10.80
2022-10-04T20:47:59.459Z,10.70
2022-10-04T20:53:34.032Z,10.70
2022-10-04T20:59:48.741Z,10.70
2022-10-04T21:06:18.964Z,10.62
2022-10-04T21:11:58.603Z,10.60
2022-10-04T21:17:30.268Z,10.60
2022-10-04T21:23:59.140Z,10.60
2022-10-04T21:29:41.897Z,10.50
2022-10-04T21:36:16.341Z,10.40
2022-10-04T21:41:59.557Z,10.40
2022-10-04T21:47:52.066Z,10.40
2022-10-04T21:53:24.158Z,10.38
2022-10-04T21:59:02.308Z,10.30
2022-10-04T22:05:08.926Z,10.20
2022-10-04T22:11:19.412Z,10.10
2022-10-04T22:17:07.449Z,10.00
2022-10-04T22:22:39.634Z,10.00
2022-10-04T22:28:34.138Z,10.10
2022-10-04T22:33:57.460Z,10.10
2022-10-04T22:39:49.900Z,10.00
2022-10-04T22:45:27.255Z,9.94
2022-10-04T22:51:02.795Z,9.90
2022-10-04T22:56:57.606Z,9.90
2022-10-04T23:02:35.154Z,9.80
2022-10-04T23:07:57.784Z,9.80
2022-10-04T23:13:28.545Z,9.70
2022-10-04T23:19:06.802Z,9.68
2022-10-04T23:24:41.237Z,9.60
2022-10-04T23:30:05.075Z,9.60
2022-10-04T23:35:33.224Z,9.66
2022-10-04T23:40:55.436Z,9.60
2022-10-04T23:46:42.811Z,9.60
2022-10-04T23:52:24.578Z,9.50
2022-10-04T23:57:50.830Z,9.50
